Maryland AWOS List, Phone Numbers

USA |  
| Search AWOS

Rocky Mountain States: Montana | Wyoming | Colorado | New Mexico

Complete weather reports: Maryland

Legend: KFNL = METAR available Follow your local AWOS on AV Mobile = METAR available on AV Mobile
Station Maryland Location Frequency Phone
KAPGFAA ID APG, KAPG 292350Z 00000KT 7SM SCT200 21/11 A3016 Follow KAPG on AV Mobile Phillips Army Air Field / Aberdeen
K61WICAO ID K61W Annapolis Coast Guard Station
KNAKICAO ID KNAK, KNAK 011254Z AUTO 00000KT 10SM CLR 26/22 A3002 RMK AO2 RAB22E31 SLP168 P0000 T02560222 Follow KNAK on AV Mobile ANNAPOLIS US NAVAL ACADEMY
KLWXICAO ID KLWX Baltimore / DC Nexrad
KDMHICAO ID KDMH, KDMH 011254Z AUTO 26/23 A3003 RMK AO1 SLP168 T02560228 Follow KDMH on AV Mobile BALTIMORE DOWNTOWN
KMTNFAA ID MTN, AWOS-3, KMTN 011245Z 00000KT 10SM SCT070 25/25 A3004 Follow KMTN on AV Mobile Baltimore / Martin 410-682-8848
KBWIFAA ID BWI, ASOS, KBWI 011254Z 00000KT 10SM FEW010 SCT070 BKN140 BKN180 24/23 A3003 Follow KBWI on AV Mobile BALTIMORE-WASHINGTON INTERNATIONAL 410-691-1278
4MDFAA ID 4MD, Belfort PIER 7
KCGEFAA ID CGE, AWOS-3, KCGE 011246Z AUTO 00000KT 10SM SCT007 25/23 A3003 RMK AO1 Follow KCGE on AV Mobile CAMBRIDGE 120.675 410-228-7559
KADWFAA ID ADW, KADW 011258Z AUTO 24004KT 10SM FEW180 26/23 A3003 RMK AO2 SLP174 T02550234 $ Follow KADW on AV Mobile Camp Springs / Andrews Air Force Base
W32FAA ID W32, Belfort WASHINGTON EXECUTIVE/HYDE FIELD
KCGSFAA ID CGS, AWOS-3, KCGS 011245Z AUTO 00000KT 10SM CLR 25/24 A3003 RMK AO1 Follow KCGS on AV Mobile COLLEGE PARK 121.225 301-864-5497
K66WICAO ID K66W Cove Point Coast Guard Light Station
KCBEFAA ID CBE, AWOS-3, KCBE 011247Z AUTO 00000KT 10SM OVC030 22/21 A3008 Follow KCBE on AV Mobile Cumberland, Greater Cumberland Regional Airport 128.625 304-738-0451
KESNFAA ID ESN, AWOS-3, KESN 011245Z 20004KT 10SM RA BKN080 25/25 A3006 Follow KESN on AV Mobile Easton / Newman Field 124.475 410-822-2817
KFMEFAA ID FME, AWOS-3, KFME 011245Z AUTO 00000KT 5SM CLR 23/22 A3005 RMK AO1 Follow KFME on AV Mobile Fort Meade / Tipton 123.925
KJWXICAO ID KJWX Fort Ritchie
KFDKFAA ID FDK, AWOS-3, KFDK 011247Z 00000KT 10SM SCT005 OVC047 MM/MM A3006 Follow KFDK on AV Mobile Frederick, Frederick Municipal Airport 124.875 301-600-1457
KGAIFAA ID GAI, AWOS-3, KGAI 011255Z AUTO 18003KT 10SM SCT050 25/23 A3007 RMK AO1 Follow KGAI on AV Mobile GAITHERSBURG 128.275 301-977-2971
KHGRFAA ID HGR, ASOS, KHGR 011253Z 16006KT 10SM SCT046 OVC060 23/22 A3004 RMK AO2 RAB19E49 SLP174 P0000 T02330217 Follow KHGR on AV Mobile HAGERSTOWN REGIONAL AIRPORT 126.375 301-745-3497
K2W6FAA ID 2W6, AWOS-3, K2W6 011246Z AUTO 00000KT 10SM SCT050 SCT120 24/22 A3004 RMK AO1 Follow K2W6 on AV Mobile LEONARDTOWN 119.575 301-373-6514
K2G4FAA ID 2G4, AWOS-3, K2G4 011245Z AUTO 24005KT 1 1/4SM BR OVC002 18/ A3013 RMK AO1 Follow K2G4 on AV Mobile OAKLAND 120.125 301-746-8443
KW30ICAO ID KW30 Ocean City
KN80ICAO ID KN80 Ocean City, Ocean City Municipal Airport
KOXBFAA ID OXB, ASOS, KOXB 011253Z AUTO 26008KT 10SM FEW013 SCT100 BKN120 27/24 A3005 RMK AO2 SLP176 T02720239 TSNO Follow KOXB on AV Mobile OCEAN CITY MUNICIPAL AIRPORT 119.025 410-213-1530
KNHKFAA ID NHK, KNHK 011252Z AUTO 00000KT 10SM FEW120 25/23 A3002 RMK AO2 RAE30 SLP167 P0001 T02500233 Follow KNHK on AV Mobile NAS PATUXENT RIVER MD
KSBYFAA ID SBY, ASOS, KSBY 011254Z 25008KT 10SM CLR 27/24 A3004 Follow KSBY on AV Mobile SALISBURY-WICOMICO CTY REG 118.325 410-341-0868
KNUIFAA ID NUI, KNUI 011253Z AUTO 19007KT 10SM -RA FEW008 SCT038 25/23 A3003 RMK AO2 RAE23B43 SLP168 P0002 T02500228 Follow KNUI on AV Mobile KNUI WEBSTER FIELD ANNEX
KW29FAA ID W29, AWOS-3, KW29 011246Z AUTO 00000KT 10SM 25/24 A3002 RMK AO1 Follow KW29 on AV Mobile STEVENSVILLE 120.575 410-643-8795
K67WICAO ID K67W Stillpond Coast Guard Station
K65WICAO ID K65W Thomas Point Coast Guard Station
KDMWFAA ID DMW, AWOS-3, KDMW 011245Z AUTO 21004KT 10SM SCT049 BKN060 23/22 A3005 RMK AO2 Follow KDMW on AV Mobile WESTMINSTER 121.25 410-876-1281

Click on the AV Mobile icon AV Mobile icon by any station to follow that AWOS feed on AirportView.net Mobile.

Garmin aera 796 $1999 at Avionics Specialists LLC
Bose A20 Aviation Headsets $995 at Avionics Specialists LLC